createdAt,value
2023-03-11T00:00:24.623Z,96040.09
2023-03-11T00:02:52.609Z,96040.94
2023-03-11T00:05:21.228Z,96038.09
2023-03-11T00:07:47.928Z,96028.34
2023-03-11T00:10:20.021Z,96023.97
2023-03-11T00:12:46.662Z,96029.09
2023-03-11T00:15:13.312Z,96028.75
2023-03-11T00:17:40.067Z,96029.28
2023-03-11T00:20:17.336Z,96015.63
2023-03-11T00:22:43.990Z,96026.09
2023-03-11T00:25:12.028Z,96021.28
2023-03-11T00:27:38.730Z,96014.91
2023-03-11T00:30:05.786Z,96000.84
2023-03-11T00:32:32.438Z,95998.66
2023-03-11T00:34:59.063Z,96007.94
2023-03-11T00:37:25.704Z,96004.16
2023-03-11T00:39:52.353Z,96007.47
2023-03-11T00:42:18.989Z,96016.94
2023-03-11T00:44:45.667Z,96015.09
2023-03-11T00:47:12.299Z,96022.53
2023-03-11T00:49:38.983Z,96021.53
2023-03-11T00:52:05.983Z,96040.88
2023-03-11T00:54:32.730Z,96029.22
2023-03-11T00:56:59.409Z,96028.22
2023-03-11T00:59:26.080Z,96031.06
2023-03-11T01:01:52.694Z,96032.25
2023-03-11T01:04:19.355Z,96021.94
2023-03-11T01:06:46.076Z,96017.16
2023-03-11T01:09:12.931Z,96027.25
2023-03-11T01:11:39.544Z,96021.25
2023-03-11T01:14:06.170Z,96030.06
2023-03-11T01:16:32.824Z,96015.97
2023-03-11T01:18:59.469Z,96022.66
2023-03-11T01:21:26.135Z,96036.25
2023-03-11T01:23:52.798Z,96022.63
2023-03-11T01:26:19.441Z,96029.28
2023-03-11T01:28:46.083Z,96043.78
2023-03-11T01:31:12.769Z,96034.50
2023-03-11T01:33:39.702Z,96026.34
2023-03-11T01:36:07.817Z,96023.84
2023-03-11T01:38:34.471Z,96000.44
2023-03-11T01:41:01.109Z,95985.50
2023-03-11T01:43:42.772Z,95986.13
2023-03-11T01:46:11.097Z,95982.19
2023-03-11T01:48:37.766Z,95982.66
2023-03-11T01:51:05.009Z,95974.66
2023-03-11T01:53:31.650Z,95960.88
2023-03-11T01:55:58.306Z,95958.41
2023-03-11T01:58:26.635Z,95949.91
2023-03-11T02:00:53.825Z,95945.25
2023-03-11T02:03:31.196Z,95921.19
2023-03-11T02:05:57.893Z,95906.91
2023-03-11T02:08:24.538Z,95890.16
2023-03-11T02:10:52.160Z,95889.53
2023-03-11T02:13:18.779Z,95911.44
2023-03-11T02:15:45.445Z,95915.81
2023-03-11T02:18:12.837Z,95928.28
2023-03-11T02:20:46.996Z,95926.63
2023-03-11T02:23:14.018Z,95947.56
2023-03-11T02:25:51.123Z,95926.28
2023-03-11T02:28:17.832Z,95927.31
2023-03-11T02:30:44.489Z,95946.41
2023-03-11T02:33:11.126Z,95934.97
2023-03-11T02:35:37.822Z,95916.41
2023-03-11T02:38:04.477Z,95906.81
2023-03-11T02:40:38.466Z,95897.28
2023-03-11T02:43:09.916Z,95907.53
2023-03-11T02:45:36.539Z,95902.88
2023-03-11T02:48:03.196Z,95918.81
2023-03-11T02:50:29.839Z,95926.16
2023-03-11T02:52:56.454Z,95937.13
2023-03-11T02:55:23.223Z,95952.72
2023-03-11T02:57:49.866Z,95946.88
2023-03-11T03:00:17.038Z,95942.69
2023-03-11T03:02:43.991Z,95935.06
2023-03-11T03:05:10.864Z,95916.53
2023-03-11T03:07:37.485Z,95901.41
2023-03-11T03:10:07.504Z,95868.50
2023-03-11T03:12:34.153Z,95861.78
2023-03-11T03:15:00.782Z,95877.94
2023-03-11T03:17:27.515Z,95876.75
2023-03-11T03:19:54.139Z,95867.13
2023-03-11T03:22:20.781Z,95859.13
2023-03-11T03:24:47.421Z,95838.50
2023-03-11T03:27:14.034Z,95851.97
2023-03-11T03:29:40.672Z,95866.31
2023-03-11T03:32:07.564Z,95854.91
2023-03-11T03:34:34.243Z,95845.09
2023-03-11T03:37:00.887Z,95850.09
2023-03-11T03:39:30.111Z,95832.31
2023-03-11T03:41:57.260Z,95835.56
2023-03-11T03:44:23.930Z,95816.00
2023-03-11T03:46:50.562Z,95818.00
2023-03-11T03:49:17.204Z,95833.00
2023-03-11T03:51:43.823Z,95836.75
2023-03-11T03:54:10.511Z,95799.94
2023-03-11T03:56:37.139Z,95814.22
2023-03-11T03:59:03.776Z,95823.38
2023-03-11T04:01:30.477Z,95827.03
2023-03-11T04:03:57.179Z,95812.94
2023-03-11T04:06:25.163Z,95801.91
2023-03-11T04:08:52.257Z,95809.28
2023-03-11T04:11:19.010Z,95792.69
2023-03-11T04:13:45.686Z,95816.38
2023-03-11T04:16:22.419Z,95789.31
2023-03-11T04:18:49.157Z,95771.91
2023-03-11T04:21:15.802Z,95767.63
2023-03-11T04:23:42.448Z,95798.88
2023-03-11T04:26:09.075Z,95814.75
2023-03-11T04:28:35.711Z,95794.38
2023-03-11T04:31:02.375Z,95800.16
2023-03-11T04:33:29.038Z,95808.13
2023-03-11T04:35:55.827Z,95795.50
2023-03-11T04:38:22.479Z,95819.25
2023-03-11T04:40:49.121Z,95811.44
2023-03-11T04:43:15.737Z,95810.09
2023-03-11T04:45:42.553Z,95769.88
2023-03-11T04:48:09.195Z,95787.28
2023-03-11T04:50:35.834Z,95821.22
2023-03-11T04:53:02.484Z,95837.66
2023-03-11T04:55:29.130Z,95823.84
2023-03-11T04:57:55.754Z,95806.13
2023-03-11T05:00:22.563Z,95806.84
2023-03-11T05:02:49.251Z,95820.34
2023-03-11T05:05:15.878Z,95804.88
2023-03-11T05:07:42.526Z,95795.06
2023-03-11T05:10:09.742Z,95813.81
2023-03-11T05:12:36.422Z,95823.25
2023-03-11T05:15:03.110Z,95816.91
2023-03-11T05:17:29.723Z,95799.97
2023-03-11T05:19:56.372Z,95803.47
2023-03-11T05:22:23.024Z,95819.06
2023-03-11T05:24:49.722Z,95811.97
2023-03-11T05:27:16.488Z,95810.91
2023-03-11T05:29:43.281Z,95808.63
2023-03-11T05:32:10.582Z,95795.25
2023-03-11T05:34:37.608Z,95812.34
2023-03-11T05:37:04.225Z,95808.84
2023-03-11T05:39:30.848Z,95812.94
2023-03-11T05:41:57.462Z,95821.94
2023-03-11T05:44:24.068Z,95823.78
2023-03-11T05:46:50.763Z,95828.38
2023-03-11T05:49:17.472Z,95824.59
2023-03-11T05:51:44.123Z,95816.63
2023-03-11T05:54:10.757Z,95822.38
2023-03-11T05:56:37.387Z,95821.31
2023-03-11T05:59:04.027Z,95833.63
2023-03-11T06:01:30.636Z,95832.00
2023-03-11T06:03:57.372Z,95829.00
2023-03-11T06:06:24.249Z,95832.44
2023-03-11T06:08:50.871Z,95838.25
2023-03-11T06:11:17.497Z,95846.50
2023-03-11T06:13:44.116Z,95845.31
2023-03-11T06:16:10.798Z,95856.59
2023-03-11T06:18:37.587Z,95858.78
2023-03-11T06:21:04.321Z,95864.09
2023-03-11T06:23:30.958Z,95867.75
2023-03-11T06:25:57.840Z,95868.75
2023-03-11T06:28:24.673Z,95868.75
2023-03-11T06:30:51.329Z,95865.22
2023-03-11T06:33:17.958Z,95869.41
2023-03-11T06:35:44.593Z,95863.06
2023-03-11T06:38:11.299Z,95857.59
2023-03-11T06:40:37.959Z,95862.41
2023-03-11T06:43:04.597Z,95870.78
2023-03-11T06:45:31.321Z,95868.31
2023-03-11T06:47:57.974Z,95868.81
2023-03-11T06:50:25.258Z,95864.19
2023-03-11T06:52:53.041Z,95856.72
2023-03-11T06:55:20.445Z,95862.56
2023-03-11T06:57:48.029Z,95854.09
2023-03-11T07:00:15.218Z,95846.84
2023-03-11T07:02:43.238Z,95852.66
2023-03-11T07:05:10.812Z,95858.03
2023-03-11T07:07:38.422Z,95848.56
2023-03-11T07:10:08.002Z,95862.84
2023-03-11T07:12:35.598Z,95866.84
2023-03-11T07:15:03.195Z,95865.47
2023-03-11T07:17:29.870Z,95866.09
2023-03-11T07:19:56.609Z,95866.59
2023-03-11T07:22:23.256Z,95866.56
2023-03-11T07:24:49.953Z,95855.44
2023-03-11T07:27:16.591Z,95848.31
2023-03-11T07:29:43.374Z,95856.66
2023-03-11T07:32:10.154Z,95857.81
2023-03-11T07:34:36.835Z,95863.47
2023-03-11T07:37:03.824Z,95876.75
2023-03-11T07:39:32.217Z,95871.63
2023-03-11T07:41:58.930Z,95877.75
2023-03-11T07:44:26.396Z,95867.78
2023-03-11T07:46:53.985Z,95879.41
2023-03-11T07:49:21.591Z,95881.38
2023-03-11T07:51:48.251Z,95889.13
2023-03-11T07:54:14.984Z,95883.16
2023-03-11T07:56:42.486Z,95900.06
2023-03-11T07:59:09.110Z,95899.53
2023-03-11T08:01:35.734Z,95907.44
2023-03-11T08:04:04.453Z,95903.13
2023-03-11T08:06:32.132Z,95898.31
2023-03-11T08:09:03.532Z,95899.97
2023-03-11T08:11:30.819Z,95897.81
2023-03-11T08:13:57.491Z,95901.63
2023-03-11T08:16:24.353Z,95921.22
2023-03-11T08:18:51.731Z,95921.53
2023-03-11T08:21:20.124Z,95914.88
2023-03-11T08:23:46.769Z,95918.16
2023-03-11T08:26:15.534Z,95934.28
2023-03-11T08:28:42.348Z,95952.91
2023-03-11T08:31:19.796Z,95972.63
2023-03-11T08:33:47.869Z,95980.22
2023-03-11T08:36:14.905Z,95986.41
2023-03-11T08:38:41.603Z,96002.00
2023-03-11T08:41:08.258Z,96011.84
2023-03-11T08:43:34.898Z,96007.06
2023-03-11T08:46:02.134Z,96021.63
2023-03-11T08:48:28.915Z,96014.84
2023-03-11T08:50:55.637Z,96037.25
2023-03-11T08:53:22.665Z,96031.66
2023-03-11T08:55:50.421Z,96036.31
2023-03-11T08:58:17.084Z,96042.28
2023-03-11T09:00:43.730Z,96044.59
2023-03-11T09:03:10.575Z,96047.06
2023-03-11T09:05:37.387Z,96037.75
2023-03-11T09:08:05.647Z,96040.78
2023-03-11T09:10:32.512Z,96040.44
2023-03-11T09:12:59.174Z,96034.06
2023-03-11T09:15:25.869Z,96046.38
2023-03-11T09:17:52.570Z,96052.78
2023-03-11T09:20:19.504Z,96056.06
2023-03-11T09:22:46.175Z,96063.34
2023-03-11T09:25:12.823Z,96061.31
2023-03-11T09:27:39.473Z,96058.31
2023-03-11T09:30:06.572Z,96055.28
2023-03-11T09:32:33.233Z,96044.53
2023-03-11T09:34:59.904Z,96055.06
2023-03-11T09:37:26.559Z,96057.06
2023-03-11T09:39:53.271Z,96055.06
2023-03-11T09:42:26.444Z,96058.69
2023-03-11T09:45:11.701Z,96058.28
2023-03-11T09:47:59.814Z,96060.38
2023-03-11T09:50:31.184Z,96064.00
2023-03-11T09:53:17.901Z,96056.66
2023-03-11T09:55:54.097Z,96057.72
2023-03-11T09:58:35.974Z,96064.22
2023-03-11T10:01:04.453Z,96067.91
2023-03-11T10:03:33.180Z,96060.38
2023-03-11T10:06:14.548Z,96062.53
2023-03-11T10:08:46.707Z,96073.47
2023-03-11T10:11:22.967Z,96069.28
2023-03-11T10:14:07.722Z,96057.44
2023-03-11T10:16:45.449Z,96066.38
2023-03-11T10:19:19.145Z,96063.34
2023-03-11T10:22:21.836Z,96073.72
2023-03-11T10:24:58.447Z,96083.34
2023-03-11T10:27:36.079Z,96076.53
2023-03-11T10:30:12.696Z,96075.88
2023-03-11T10:32:59.673Z,96087.53
2023-03-11T10:35:42.047Z,96088.19
2023-03-11T10:38:19.640Z,96083.03
2023-03-11T10:40:48.307Z,96081.38
2023-03-11T10:43:17.789Z,96097.00
2023-03-11T10:45:44.808Z,96103.97
2023-03-11T10:48:16.175Z,96105.34
2023-03-11T10:51:05.836Z,96103.34
2023-03-11T10:53:34.437Z,96105.16
2023-03-11T10:56:02.034Z,96103.81
2023-03-11T10:58:32.042Z,96100.16
2023-03-11T11:01:05.339Z,96099.56
2023-03-11T11:03:32.845Z,96096.19
2023-03-11T11:06:07.045Z,96098.84
2023-03-11T11:08:34.054Z,96084.25
2023-03-11T11:11:02.635Z,96088.81
2023-03-11T11:13:31.258Z,96078.03
2023-03-11T11:16:17.605Z,96087.75
2023-03-11T11:18:49.435Z,96089.97
2023-03-11T11:21:17.569Z,96088.50
2023-03-11T11:23:47.273Z,96096.94
2023-03-11T11:26:23.851Z,96099.97
2023-03-11T11:29:19.754Z,96105.06
2023-03-11T11:31:46.613Z,96102.09
2023-03-11T11:34:33.649Z,96100.84
2023-03-11T11:37:04.676Z,96108.06
2023-03-11T11:39:39.050Z,96108.19
2023-03-11T11:42:05.706Z,96113.63
2023-03-11T11:44:34.290Z,96118.13
2023-03-11T11:47:07.635Z,96117.94
2023-03-11T11:49:34.662Z,96120.19
2023-03-11T11:52:18.633Z,96107.00
2023-03-11T11:54:51.218Z,96103.25
2023-03-11T11:57:19.362Z,96097.00
2023-03-11T11:59:46.040Z,96098.78
2023-03-11T12:02:27.963Z,96104.34
2023-03-11T12:04:56.503Z,96104.09
2023-03-11T12:07:48.343Z,96107.47
2023-03-11T12:10:23.177Z,96096.81
2023-03-11T12:13:21.732Z,96103.88
2023-03-11T12:15:54.606Z,96112.47
2023-03-11T12:18:37.498Z,96097.59
2023-03-11T12:21:23.993Z,96101.25
2023-03-11T12:24:13.734Z,96103.56
2023-03-11T12:26:40.449Z,96095.06
2023-03-11T12:29:11.891Z,96098.19
2023-03-11T12:31:39.974Z,96087.66
2023-03-11T12:34:08.043Z,96081.97
2023-03-11T12:36:35.034Z,96086.06
2023-03-11T12:39:03.113Z,96083.03
2023-03-11T12:41:37.752Z,96080.34
2023-03-11T12:44:24.060Z,96078.88
2023-03-11T12:46:59.859Z,96088.47
2023-03-11T12:49:48.592Z,96083.53
2023-03-11T12:52:19.318Z,96093.72
2023-03-11T12:54:47.302Z,96092.09
2023-03-11T12:57:16.800Z,96086.19
2023-03-11T13:00:02.454Z,96085.44
2023-03-11T13:03:06.810Z,96084.97
2023-03-11T13:05:54.757Z,96082.84
2023-03-11T13:08:29.404Z,96079.19
2023-03-11T13:10:56.094Z,96073.09
2023-03-11T13:13:41.507Z,96072.75
2023-03-11T13:16:14.173Z,96075.53
2023-03-11T13:18:41.418Z,96076.16
2023-03-11T13:21:26.857Z,96079.00
2023-03-11T13:24:12.022Z,96074.50
2023-03-11T13:26:40.820Z,96074.38
2023-03-11T13:29:29.528Z,96075.22
2023-03-11T13:31:59.064Z,96086.34
2023-03-11T13:34:50.452Z,96092.19
2023-03-11T13:37:27.766Z,96093.28
2023-03-11T13:40:12.593Z,96087.88
2023-03-11T13:42:49.472Z,96097.59
2023-03-11T13:45:25.845Z,96100.38
2023-03-11T13:47:52.559Z,96102.91
2023-03-11T13:50:31.213Z,96107.06
2023-03-11T13:52:58.674Z,96112.16
2023-03-11T13:55:32.556Z,96113.28
2023-03-11T13:57:59.215Z,96113.09
2023-03-11T14:00:29.468Z,96126.97
2023-03-11T14:03:01.712Z,96127.47
2023-03-11T14:05:35.269Z,96126.28
2023-03-11T14:08:20.731Z,96130.31
2023-03-11T14:11:01.109Z,96133.53
2023-03-11T14:13:31.991Z,96131.19
2023-03-11T14:16:04.348Z,96131.69
2023-03-11T14:18:33.058Z,96135.69
2023-03-11T14:20:59.750Z,96141.31
2023-03-11T14:23:29.502Z,96141.31
2023-03-11T14:26:16.735Z,96144.81
2023-03-11T14:28:48.405Z,96144.50
2023-03-11T14:31:41.938Z,96151.84
2023-03-11T14:34:19.490Z,96145.38
2023-03-11T14:36:50.180Z,96151.66
2023-03-11T14:39:39.663Z,96147.06
2023-03-11T14:42:21.662Z,96147.16
2023-03-11T14:45:00.668Z,96144.91
2023-03-11T14:47:40.298Z,96144.72
2023-03-11T14:50:10.102Z,96150.22
2023-03-11T14:52:41.658Z,96150.88
2023-03-11T14:55:14.167Z,96146.06
2023-03-11T14:57:48.235Z,96150.19
2023-03-11T15:00:19.551Z,96159.66
2023-03-11T15:03:22.585Z,96154.69
2023-03-11T15:05:52.193Z,96154.69
2023-03-11T15:08:19.900Z,96146.38
2023-03-11T15:11:06.853Z,96143.38
2023-03-11T15:13:33.770Z,96146.97
2023-03-11T15:16:05.443Z,96143.84
2023-03-11T15:18:34.010Z,96161.84
2023-03-11T15:21:02.439Z,96146.06
2023-03-11T15:23:29.096Z,96150.97
2023-03-11T15:25:55.750Z,96143.31
2023-03-11T15:28:28.395Z,96158.69
2023-03-11T15:31:19.918Z,96165.78
2023-03-11T15:33:46.633Z,96153.97
2023-03-11T15:36:28.894Z,96165.19
2023-03-11T15:39:18.425Z,96167.66
2023-03-11T15:41:47.000Z,96187.31
2023-03-11T15:44:24.051Z,96187.09
2023-03-11T15:46:50.694Z,96181.31
2023-03-11T15:49:17.347Z,96184.00
2023-03-11T15:51:44.038Z,96196.81
2023-03-11T15:54:10.708Z,96197.13
2023-03-11T15:56:39.619Z,96193.66
2023-03-11T15:59:06.319Z,96180.53
2023-03-11T16:01:32.960Z,96180.91
2023-03-11T16:03:59.739Z,96193.84
2023-03-11T16:06:26.441Z,96193.81
2023-03-11T16:08:53.102Z,96195.81
2023-03-11T16:11:19.772Z,96201.72
2023-03-11T16:13:46.446Z,96205.31
2023-03-11T16:16:16.583Z,96199.69
2023-03-11T16:18:43.290Z,96205.06
2023-03-11T16:21:15.802Z,96203.81
2023-03-11T16:23:51.496Z,96206.28
2023-03-11T16:26:18.983Z,96213.44
2023-03-11T16:28:45.678Z,96199.59
2023-03-11T16:31:12.362Z,96194.56
2023-03-11T16:33:39.059Z,96205.06
2023-03-11T16:36:06.114Z,96222.69
2023-03-11T16:38:36.397Z,96222.41
2023-03-11T16:41:03.181Z,96233.34
2023-03-11T16:43:29.881Z,96225.19
2023-03-11T16:45:56.621Z,96215.91
2023-03-11T16:48:24.175Z,96225.22
2023-03-11T16:50:51.771Z,96229.22
2023-03-11T16:53:19.355Z,96239.03
2023-03-11T16:55:46.970Z,96239.06
2023-03-11T16:58:14.535Z,96252.00
2023-03-11T17:00:41.786Z,96249.53
2023-03-11T17:03:10.414Z,96233.72
2023-03-11T17:05:37.292Z,96255.84
2023-03-11T17:08:03.933Z,96257.03
2023-03-11T17:10:35.488Z,96258.72
2023-03-11T17:13:02.174Z,96254.22
2023-03-11T17:15:29.411Z,96258.53
2023-03-11T17:17:56.114Z,96282.66
2023-03-11T17:20:22.775Z,96278.81
2023-03-11T17:22:49.472Z,96270.38
2023-03-11T17:25:16.134Z,96278.19
2023-03-11T17:27:42.781Z,96260.06
2023-03-11T17:30:10.008Z,96257.72
2023-03-11T17:32:36.703Z,96272.03
2023-03-11T17:35:03.386Z,96286.13
2023-03-11T17:37:30.129Z,96272.47
2023-03-11T17:39:56.808Z,96277.31
2023-03-11T17:42:23.476Z,96285.47
2023-03-11T17:44:52.033Z,96289.66
2023-03-11T17:47:19.207Z,96289.47
2023-03-11T17:49:45.868Z,96286.81
2023-03-11T17:52:12.892Z,96284.31
2023-03-11T17:54:40.222Z,96292.75
2023-03-11T17:57:06.879Z,96303.75
2023-03-11T17:59:33.696Z,96304.78
2023-03-11T18:02:00.486Z,96303.66
2023-03-11T18:04:27.599Z,96312.31
2023-03-11T18:06:54.839Z,96313.00
2023-03-11T18:09:21.540Z,96315.81
2023-03-11T18:11:48.446Z,96330.44
2023-03-11T18:14:15.135Z,96323.47
2023-03-11T18:16:41.849Z,96336.09
2023-03-11T18:19:08.703Z,96348.72
2023-03-11T18:21:35.369Z,96347.59
2023-03-11T18:24:02.043Z,96347.53
2023-03-11T18:26:29.101Z,96361.84
2023-03-11T18:28:56.354Z,96348.56
2023-03-11T18:31:23.825Z,96350.53
2023-03-11T18:34:00.880Z,96359.84
2023-03-11T18:36:32.295Z,96356.53
2023-03-11T18:38:59.310Z,96349.53
2023-03-11T18:41:26.522Z,96340.22
2023-03-11T18:43:53.720Z,96352.56
2023-03-11T18:46:20.428Z,96358.19
2023-03-11T18:48:47.159Z,96369.00
2023-03-11T18:51:13.881Z,96358.88
2023-03-11T18:53:42.942Z,96354.88
2023-03-11T18:56:13.443Z,96355.16
2023-03-11T18:58:40.145Z,96352.69
2023-03-11T19:01:14.478Z,96346.03
2023-03-11T19:03:41.807Z,96355.34
2023-03-11T19:06:09.334Z,96354.16
2023-03-11T19:08:36.035Z,96359.84
2023-03-11T19:11:10.720Z,96353.03
2023-03-11T19:13:46.541Z,96356.53
2023-03-11T19:16:14.937Z,96359.50
2023-03-11T19:18:42.527Z,96370.81
2023-03-11T19:21:10.262Z,96378.00
2023-03-11T19:23:36.908Z,96386.97
2023-03-11T19:26:03.840Z,96384.31
2023-03-11T19:28:30.572Z,96383.44
2023-03-11T19:30:57.756Z,96381.59
2023-03-11T19:33:24.473Z,96391.94
2023-03-11T19:36:01.438Z,96396.44
2023-03-11T19:38:28.638Z,96398.75
2023-03-11T19:41:03.581Z,96410.41
2023-03-11T19:43:30.310Z,96414.91
2023-03-11T19:45:57.007Z,96406.09
2023-03-11T19:48:23.709Z,96408.41
2023-03-11T19:50:50.771Z,96416.25
2023-03-11T19:53:17.477Z,96417.56
2023-03-11T19:55:48.948Z,96414.19
2023-03-11T19:58:15.599Z,96408.56
2023-03-11T20:00:42.697Z,96389.44
2023-03-11T20:03:09.965Z,96389.97
2023-03-11T20:05:37.559Z,96387.94
2023-03-11T20:08:04.723Z,96392.25
2023-03-11T20:10:31.440Z,96408.59
2023-03-11T20:13:02.383Z,96414.56
2023-03-11T20:15:29.573Z,96419.56
2023-03-11T20:17:56.316Z,96434.88
2023-03-11T20:20:22.996Z,96431.22
2023-03-11T20:22:49.669Z,96429.19
2023-03-11T20:25:16.311Z,96434.00
2023-03-11T20:27:43.038Z,96430.38
2023-03-11T20:30:10.268Z,96436.34
2023-03-11T20:32:37.025Z,96425.88
2023-03-11T20:35:04.012Z,96434.66
2023-03-11T20:37:31.262Z,96437.19
2023-03-11T20:39:57.912Z,96447.19
2023-03-11T20:42:24.646Z,96449.50
2023-03-11T20:44:53.341Z,96457.66
2023-03-11T20:47:20.409Z,96451.66
2023-03-11T20:49:47.198Z,96456.81
2023-03-11T20:52:13.984Z,96454.81
2023-03-11T20:54:40.645Z,96466.13
2023-03-11T20:57:07.392Z,96472.28
2023-03-11T20:59:34.164Z,96474.94
2023-03-11T21:02:00.982Z,96463.47
2023-03-11T21:04:27.777Z,96469.28
2023-03-11T21:06:54.448Z,96466.47
2023-03-11T21:09:21.131Z,96471.97
2023-03-11T21:11:47.910Z,96473.28
2023-03-11T21:14:15.662Z,96476.09
2023-03-11T21:16:42.887Z,96466.94
2023-03-11T21:19:09.715Z,96473.09
2023-03-11T21:21:37.331Z,96479.94
2023-03-11T21:24:05.933Z,96478.59
2023-03-11T21:26:32.594Z,96490.41
2023-03-11T21:28:59.239Z,96487.41
2023-03-11T21:31:28.939Z,96494.38
2023-03-11T21:33:56.750Z,96495.09
2023-03-11T21:36:23.566Z,96510.06
2023-03-11T21:38:50.599Z,96499.22
2023-03-11T21:41:24.932Z,96500.72
2023-03-11T21:43:52.650Z,96499.22
2023-03-11T21:46:21.217Z,96507.53
2023-03-11T21:48:48.066Z,96506.38
2023-03-11T21:51:15.544Z,96515.03
2023-03-11T21:53:42.287Z,96514.72
2023-03-11T21:56:09.036Z,96518.34
2023-03-11T21:58:35.755Z,96526.84
2023-03-11T22:01:02.555Z,96531.00
2023-03-11T22:03:29.397Z,96534.16
2023-03-11T22:05:59.869Z,96528.03
2023-03-11T22:08:26.697Z,96535.00
2023-03-11T22:10:53.551Z,96541.84
2023-03-11T22:13:20.266Z,96541.31
2023-03-11T22:15:46.930Z,96537.13
2023-03-11T22:18:13.761Z,96545.97
2023-03-11T22:20:40.792Z,96547.31
2023-03-11T22:23:09.188Z,96547.97
2023-03-11T22:25:35.934Z,96554.09
2023-03-11T22:28:02.589Z,96556.94
2023-03-11T22:30:29.256Z,96559.44
2023-03-11T22:32:56.001Z,96556.94
2023-03-11T22:35:22.690Z,96558.28
2023-03-11T22:37:49.348Z,96560.78
2023-03-11T22:40:16.006Z,96559.94
2023-03-11T22:42:42.644Z,96567.25
2023-03-11T22:45:09.443Z,96565.44
2023-03-11T22:47:36.260Z,96565.09
2023-03-11T22:50:03.916Z,96580.06
2023-03-11T22:52:30.863Z,96576.91
2023-03-11T22:54:57.553Z,96581.88
2023-03-11T22:57:24.724Z,96589.88
2023-03-11T22:59:51.437Z,96588.91
2023-03-11T23:02:18.407Z,96602.00
2023-03-11T23:04:45.161Z,96599.53
2023-03-11T23:07:12.792Z,96594.19
2023-03-11T23:09:40.459Z,96588.22
2023-03-11T23:12:07.350Z,96603.19
2023-03-11T23:14:44.626Z,96595.19
2023-03-11T23:17:11.982Z,96596.53
2023-03-11T23:19:38.680Z,96588.22
2023-03-11T23:22:05.421Z,96579.72
2023-03-11T23:24:33.063Z,96581.41
2023-03-11T23:27:00.112Z,96583.22
2023-03-11T23:29:26.782Z,96587.69
2023-03-11T23:31:53.481Z,96597.38
2023-03-11T23:34:20.123Z,96590.03
2023-03-11T23:36:46.766Z,96594.38
2023-03-11T23:39:13.407Z,96598.50
2023-03-11T23:41:40.089Z,96587.03
2023-03-11T23:44:06.759Z,96593.34
2023-03-11T23:46:33.534Z,96595.00
2023-03-11T23:49:01.976Z,96592.88
2023-03-11T23:51:29.576Z,96596.03
2023-03-11T23:53:57.170Z,96601.19
2023-03-11T23:56:23.826Z,96601.66
2023-03-11T23:58:50.491Z,96600.13
